sensor_id;sensor_type;location;lat;lon;timestamp;pressure;altitude;pressure_sealevel;temperature;humidity
66524;BME280;53350;52.210;5.160;2023-02-02T00:01:52;102136.19;;;10.18;74.28
66524;BME280;53350;52.210;5.160;2023-02-02T00:04:21;102137.06;;;10.20;74.15
66524;BME280;53350;52.210;5.160;2023-02-02T00:06:48;102137.97;;;10.26;73.99
66524;BME280;53350;52.210;5.160;2023-02-02T00:09:17;102122.47;;;10.20;74.00
66524;BME280;53350;52.210;5.160;2023-02-02T00:11:45;102139.72;;;10.27;73.58
66524;BME280;53350;52.210;5.160;2023-02-02T00:14:12;102141.38;;;10.22;74.00
66524;BME280;53350;52.210;5.160;2023-02-02T00:16:42;102142.19;;;10.17;73.94
66524;BME280;53350;52.210;5.160;2023-02-02T00:19:11;102146.44;;;10.13;74.18
66524;BME280;53350;52.210;5.160;2023-02-02T00:21:38;102146.44;;;10.15;74.53
66524;BME280;53350;52.210;5.160;2023-02-02T00:24:05;102139.63;;;10.17;74.42
66524;BME280;53350;52.210;5.160;2023-02-02T00:26:34;102138.75;;;10.16;74.60
66524;BME280;53350;52.210;5.160;2023-02-02T00:29:00;102141.31;;;10.16;74.54
66524;BME280;53350;52.210;5.160;2023-02-02T00:31:27;102136.19;;;10.18;74.64
66524;BME280;53350;52.210;5.160;2023-02-02T00:33:53;102143.91;;;10.18;74.80
66524;BME280;53350;52.210;5.160;2023-02-02T00:36:20;102153.34;;;10.17;75.04
66524;BME280;53350;52.210;5.160;2023-02-02T00:38:47;102156.78;;;10.18;75.15
66524;BME280;53350;52.210;5.160;2023-02-02T00:41:14;102149.00;;;10.13;75.20
66524;BME280;53350;52.210;5.160;2023-02-02T00:43:42;102149.03;;;10.15;75.20
66524;BME280;53350;52.210;5.160;2023-02-02T00:46:11;102147.28;;;10.14;75.43
66524;BME280;53350;52.210;5.160;2023-02-02T00:48:38;102153.28;;;10.11;75.55
66524;BME280;53350;52.210;5.160;2023-02-02T00:51:04;102149.81;;;10.09;75.58
66524;BME280;53350;52.210;5.160;2023-02-02T00:53:31;102153.25;;;10.08;75.30
66524;BME280;53350;52.210;5.160;2023-02-02T00:55:57;102158.31;;;10.02;75.03
66524;BME280;53350;52.210;5.160;2023-02-02T00:58:24;102154.84;;;9.97;74.94
66524;BME280;53350;52.210;5.160;2023-02-02T01:00:51;102162.59;;;9.98;73.95
66524;BME280;53350;52.210;5.160;2023-02-02T01:03:18;102148.78;;;9.91;73.84
66524;BME280;53350;52.210;5.160;2023-02-02T01:05:44;102159.03;;;9.87;73.87
66524;BME280;53350;52.210;5.160;2023-02-02T01:08:11;102146.97;;;9.84;73.83
66524;BME280;53350;52.210;5.160;2023-02-02T01:10:37;102159.03;;;9.87;73.13
66524;BME280;53350;52.210;5.160;2023-02-02T01:13:03;102157.22;;;9.81;73.17
66524;BME280;53350;52.210;5.160;2023-02-02T01:15:30;102163.16;;;9.74;73.47
66524;BME280;53350;52.210;5.160;2023-02-02T01:17:58;102163.97;;;9.71;73.78
66524;BME280;53350;52.210;5.160;2023-02-02T01:20:24;102166.56;;;9.73;73.82
66524;BME280;53350;52.210;5.160;2023-02-02T01:22:50;102159.69;;;9.70;73.58
66524;BME280;53350;52.210;5.160;2023-02-02T01:25:17;102165.63;;;9.65;74.20
66524;BME280;53350;52.210;5.160;2023-02-02T01:27:44;102164.72;;;9.63;74.28
66524;BME280;53350;52.210;5.160;2023-02-02T01:30:11;102159.56;;;9.61;74.54
66524;BME280;53350;52.210;5.160;2023-02-02T01:32:37;102154.38;;;9.60;74.80
66524;BME280;53350;52.210;5.160;2023-02-02T01:35:05;102160.34;;;9.57;74.88
66524;BME280;53350;52.210;5.160;2023-02-02T01:37:32;102163.81;;;9.59;75.35
66524;BME280;53350;52.210;5.160;2023-02-02T01:39:58;102157.78;;;9.57;75.58
66524;BME280;53350;52.210;5.160;2023-02-02T01:42:25;102166.28;;;9.53;76.01
66524;BME280;53350;52.210;5.160;2023-02-02T01:45:13;102146.56;;;9.50;76.16
66524;BME280;53350;52.210;5.160;2023-02-02T01:47:44;102155.97;;;9.50;76.62
66524;BME280;53350;52.210;5.160;2023-02-02T01:50:15;102155.13;;;9.51;76.77
66524;BME280;53350;52.210;5.160;2023-02-02T01:52:45;102166.28;;;9.53;76.89
66524;BME280;53350;52.210;5.160;2023-02-02T01:55:13;102171.41;;;9.51;77.08
66524;BME280;53350;52.210;5.160;2023-02-02T01:57:43;102155.91;;;9.44;77.33
66524;BME280;53350;52.210;5.160;2023-02-02T02:00:13;102166.25;;;9.50;77.55
66524;BME280;53350;52.210;5.160;2023-02-02T02:02:42;102160.22;;;9.46;77.87
66524;BME280;53350;52.210;5.160;2023-02-02T02:05:10;102161.91;;;9.46;78.08
66524;BME280;53350;52.210;5.160;2023-02-02T02:07:42;102161.91;;;9.46;78.14
66524;BME280;53350;52.210;5.160;2023-02-02T02:10:09;102156.75;;;9.46;78.28
66524;BME280;53350;52.210;5.160;2023-02-02T02:12:36;102151.59;;;9.44;78.35
66524;BME280;53350;52.210;5.160;2023-02-02T02:15:03;102155.91;;;9.45;78.30
66524;BME280;53350;52.210;5.160;2023-02-02T02:18:00;102151.63;;;9.46;78.80
66524;BME280;53350;52.210;5.160;2023-02-02T02:20:46;102146.53;;;9.49;78.42
66524;BME280;53350;52.210;5.160;2023-02-02T02:27:12;102148.22;;;9.48;78.61
66524;BME280;53350;52.210;5.160;2023-02-02T02:33:01;102142.25;;;9.49;78.52
66524;BME280;53350;52.210;5.160;2023-02-02T02:35:33;102133.72;;;9.50;78.64
66524;BME280;53350;52.210;5.160;2023-02-02T02:38:05;102133.72;;;9.50;78.58
66524;BME280;53350;52.210;5.160;2023-02-02T02:40:36;102137.97;;;9.51;78.62
66524;BME280;53350;52.210;5.160;2023-02-02T02:43:09;102124.22;;;9.48;78.55
66524;BME280;53350;52.210;5.160;2023-02-02T02:45:40;102121.72;;;9.54;78.26
66524;BME280;53350;52.210;5.160;2023-02-02T02:48:10;102122.66;;;9.57;77.75
66524;BME280;53350;52.210;5.160;2023-02-02T02:50:37;102126.03;;;9.55;77.83
66524;BME280;53350;52.210;5.160;2023-02-02T02:53:05;102120.84;;;9.50;77.93
66524;BME280;53350;52.210;5.160;2023-02-02T02:55:40;102130.34;;;9.54;77.45
66524;BME280;53350;52.210;5.160;2023-02-02T02:58:12;102136.38;;;9.60;76.84
66524;BME280;53350;52.210;5.160;2023-02-02T03:00:46;102130.38;;;9.59;76.72
66524;BME280;53350;52.210;5.160;2023-02-02T03:03:23;102136.38;;;9.58;76.77
66524;BME280;53350;52.210;5.160;2023-02-02T03:05:53;102145.78;;;9.56;76.42
66524;BME280;53350;52.210;5.160;2023-02-02T03:08:25;102136.38;;;9.60;76.25
66524;BME280;53350;52.210;5.160;2023-02-02T03:10:54;102145.69;;;9.51;76.45
66524;BME280;53350;52.210;5.160;2023-02-02T03:13:21;102156.16;;;9.62;76.55
66524;BME280;53350;52.210;5.160;2023-02-02T03:15:48;102156.06;;;9.54;76.71
66524;BME280;53350;52.210;5.160;2023-02-02T03:18:18;102155.16;;;9.54;76.63
66524;BME280;53350;52.210;5.160;2023-02-02T03:20:45;102172.44;;;9.63;76.52
66524;BME280;53350;52.210;5.160;2023-02-02T03:23:12;102167.34;;;9.69;76.14
66524;BME280;53350;52.210;5.160;2023-02-02T03:25:39;102170.00;;;9.72;75.95
66524;BME280;53350;52.210;5.160;2023-02-02T03:28:06;102165.69;;;9.72;76.07
66524;BME280;53350;52.210;5.160;2023-02-02T03:30:33;102169.97;;;9.70;76.12
66524;BME280;53350;52.210;5.160;2023-02-02T03:32:59;102167.44;;;9.72;76.18
66524;BME280;53350;52.210;5.160;2023-02-02T03:35:27;102161.44;;;9.76;75.93
66524;BME280;53350;52.210;5.160;2023-02-02T03:37:54;102159.78;;;9.78;75.81
66524;BME280;53350;52.210;5.160;2023-02-02T03:40:20;102157.22;;;9.80;75.67
66524;BME280;53350;52.210;5.160;2023-02-02T03:42:46;102152.09;;;9.81;75.70
66524;BME280;53350;52.210;5.160;2023-02-02T03:45:13;102153.84;;;9.85;75.44
66524;BME280;53350;52.210;5.160;2023-02-02T03:47:39;102159.88;;;9.87;75.43
66524;BME280;53350;52.210;5.160;2023-02-02T03:50:07;102159.88;;;9.89;75.12
66524;BME280;53350;52.210;5.160;2023-02-02T03:52:35;102161.59;;;9.88;75.08
66524;BME280;53350;52.210;5.160;2023-02-02T03:55:02;102153.88;;;9.87;75.22
66524;BME280;53350;52.210;5.160;2023-02-02T03:57:29;102152.19;;;9.90;75.04
66524;BME280;53350;52.210;5.160;2023-02-02T03:59:56;102150.53;;;9.94;74.77
66524;BME280;53350;52.210;5.160;2023-02-02T04:02:22;102151.38;;;9.93;74.83
66524;BME280;53350;52.210;5.160;2023-02-02T04:04:48;102152.25;;;9.94;74.99
66524;BME280;53350;52.210;5.160;2023-02-02T04:07:15;102151.38;;;9.95;74.75
66524;BME280;53350;52.210;5.160;2023-02-02T04:09:43;102154.84;;;9.95;74.71
66524;BME280;53350;52.210;5.160;2023-02-02T04:12:09;102159.13;;;9.96;74.84
66524;BME280;53350;52.210;5.160;2023-02-02T04:14:35;102150.56;;;9.99;74.28
66524;BME280;53350;52.210;5.160;2023-02-02T04:17:02;102150.56;;;9.99;74.20
66524;BME280;53350;52.210;5.160;2023-02-02T04:19:28;102139.44;;;10.00;74.30
66524;BME280;53350;52.210;5.160;2023-02-02T04:21:55;102124.84;;;10.02;74.19
66524;BME280;53350;52.210;5.160;2023-02-02T04:24:21;102124.88;;;10.03;74.13
66524;BME280;53350;52.210;5.160;2023-02-02T04:26:49;102139.44;;;10.01;74.16
66524;BME280;53350;52.210;5.160;2023-02-02T04:29:15;102140.28;;;10.00;74.20
66524;BME280;53350;52.210;5.160;2023-02-02T04:31:42;102141.22;;;10.07;74.14
66524;BME280;53350;52.210;5.160;2023-02-02T04:34:08;102148.94;;;10.04;74.11
66524;BME280;53350;52.210;5.160;2023-02-02T04:36:34;102152.38;;;10.06;74.07
66524;BME280;53350;52.210;5.160;2023-02-02T04:39:01;102148.13;;;10.08;73.64
66524;BME280;53350;52.210;5.160;2023-02-02T04:41:27;102151.50;;;10.05;73.94
66524;BME280;53350;52.210;5.160;2023-02-02T04:43:55;102148.06;;;10.06;73.89
66524;BME280;53350;52.210;5.160;2023-02-02T04:46:21;102151.53;;;10.07;73.79
66524;BME280;53350;52.210;5.160;2023-02-02T04:48:48;102168.66;;;10.06;74.00
66524;BME280;53350;52.210;5.160;2023-02-02T04:51:15;102161.81;;;10.07;74.08
66524;BME280;53350;52.210;5.160;2023-02-02T04:53:43;102156.69;;;10.08;73.91
66524;BME280;53350;52.210;5.160;2023-02-02T04:56:12;102149.75;;;10.03;73.97
66524;BME280;53350;52.210;5.160;2023-02-02T04:58:38;102166.16;;;10.09;74.05
66524;BME280;53350;52.210;5.160;2023-02-02T05:01:09;102175.63;;;10.15;73.84
66524;BME280;53350;52.210;5.160;2023-02-02T05:03:35;102178.19;;;10.14;74.04
66524;BME280;53350;52.210;5.160;2023-02-02T05:06:02;102176.50;;;10.14;74.09
66524;BME280;53350;52.210;5.160;2023-02-02T05:08:29;102185.91;;;10.14;74.12
66524;BME280;53350;52.210;5.160;2023-02-02T05:10:55;102184.19;;;10.11;74.10
66524;BME280;53350;52.210;5.160;2023-02-02T05:13:22;102175.59;;;10.10;74.13
66524;BME280;53350;52.210;5.160;2023-02-02T05:15:48;102173.88;;;10.08;74.41
66524;BME280;53350;52.210;5.160;2023-02-02T05:18:16;102174.75;;;10.12;74.12
66524;BME280;53350;52.210;5.160;2023-02-02T05:20:42;102176.47;;;10.11;74.46
66524;BME280;53350;52.210;5.160;2023-02-02T05:23:09;102175.56;;;10.09;74.36
66524;BME280;53350;52.210;5.160;2023-02-02T05:25:35;102174.75;;;10.12;74.35
66524;BME280;53350;52.210;5.160;2023-02-02T05:28:01;102181.63;;;10.13;74.59
66524;BME280;53350;52.210;5.160;2023-02-02T05:30:28;102184.19;;;10.09;74.53
66524;BME280;53350;52.210;5.160;2023-02-02T05:32:54;102180.78;;;10.15;74.10
66524;BME280;53350;52.210;5.160;2023-02-02T05:35:22;102183.31;;;10.12;74.23
66524;BME280;53350;52.210;5.160;2023-02-02T05:37:48;102176.50;;;10.16;74.43
66524;BME280;53350;52.210;5.160;2023-02-02T05:40:15;102175.56;;;10.09;74.49
66524;BME280;53350;52.210;5.160;2023-02-02T05:42:42;102175.59;;;10.12;74.64
66524;BME280;53350;52.210;5.160;2023-02-02T05:45:09;102173.88;;;10.09;74.85
66524;BME280;53350;52.210;5.160;2023-02-02T05:47:36;102184.19;;;10.11;75.11
66524;BME280;53350;52.210;5.160;2023-02-02T05:50:02;102175.69;;;10.18;74.63
66524;BME280;53350;52.210;5.160;2023-02-02T05:52:31;102187.66;;;10.16;74.78
66524;BME280;53350;52.210;5.160;2023-02-02T05:54:59;102190.22;;;10.15;74.95
66524;BME280;53350;52.210;5.160;2023-02-02T05:57:25;102199.69;;;10.16;74.85
66524;BME280;53350;52.210;5.160;2023-02-02T05:59:52;102187.66;;;10.15;74.97
66524;BME280;53350;52.210;5.160;2023-02-02T06:02:19;102194.47;;;10.09;75.23
66524;BME280;53350;52.210;5.160;2023-02-02T06:04:45;102202.22;;;10.13;75.68
66524;BME280;53350;52.210;5.160;2023-02-02T06:07:12;102186.75;;;10.11;75.48
66524;BME280;53350;52.210;5.160;2023-02-02T06:09:39;102188.47;;;10.10;75.50
66524;BME280;53350;52.210;5.160;2023-02-02T06:12:06;102187.59;;;10.10;75.30
66524;BME280;53350;52.210;5.160;2023-02-02T06:14:33;102192.72;;;10.07;75.41
66524;BME280;53350;52.210;5.160;2023-02-02T06:16:59;102194.41;;;10.06;75.66
66524;BME280;53350;52.210;5.160;2023-02-02T06:19:25;102200.44;;;10.05;75.75
66524;BME280;53350;52.210;5.160;2023-02-02T06:21:52;102206.44;;;10.06;75.79
66524;BME280;53350;52.210;5.160;2023-02-02T06:24:18;102205.53;;;10.02;75.92
66524;BME280;53350;52.210;5.160;2023-02-02T06:26:46;102206.41;;;10.03;75.99
66524;BME280;53350;52.210;5.160;2023-02-02T06:29:12;102211.53;;;10.01;76.38
66524;BME280;53350;52.210;5.160;2023-02-02T06:31:39;102214.13;;;10.03;76.08
66524;BME280;53350;52.210;5.160;2023-02-02T06:34:05;102210.69;;;10.01;76.41
66524;BME280;53350;52.210;5.160;2023-02-02T06:36:32;102214.97;;;10.02;76.47
66524;BME280;53350;52.210;5.160;2023-02-02T06:38:59;102226.13;;;10.02;76.68
66524;BME280;53350;52.210;5.160;2023-02-02T06:41:26;102221.00;;;10.02;76.79
66524;BME280;53350;52.210;5.160;2023-02-02T06:43:54;102234.72;;;10.03;76.70
66524;BME280;53350;52.210;5.160;2023-02-02T06:46:20;102226.16;;;10.04;76.86
66524;BME280;53350;52.210;5.160;2023-02-02T06:48:47;102243.28;;;10.03;77.00
66524;BME280;53350;52.210;5.160;2023-02-02T06:51:13;102249.31;;;10.04;77.01
66524;BME280;53350;52.210;5.160;2023-02-02T06:53:39;102255.31;;;10.03;77.02
66524;BME280;53350;52.210;5.160;2023-02-02T06:56:08;102246.72;;;10.02;77.03
66524;BME280;53350;52.210;5.160;2023-02-02T06:58:37;102240.75;;;10.06;77.12
66524;BME280;53350;52.210;5.160;2023-02-02T07:01:07;102242.44;;;10.04;77.02
66524;BME280;53350;52.210;5.160;2023-02-02T07:03:34;102238.13;;;10.03;77.04
66524;BME280;53350;52.210;5.160;2023-02-02T07:06:09;102231.22;;;9.99;77.38
66524;BME280;53350;52.210;5.160;2023-02-02T07:08:36;102232.94;;;9.97;77.57
66524;BME280;53350;52.210;5.160;2023-02-02T07:11:03;102228.63;;;9.96;77.64
66524;BME280;53350;52.210;5.160;2023-02-02T07:13:29;102224.31;;;9.94;77.75
66524;BME280;53350;52.210;5.160;2023-02-02T07:15:56;102234.63;;;9.94;77.67
66524;BME280;53350;52.210;5.160;2023-02-02T07:18:24;102233.72;;;9.91;77.77
66524;BME280;53350;52.210;5.160;2023-02-02T07:20:50;102231.16;;;9.93;77.46
66524;BME280;53350;52.210;5.160;2023-02-02T07:23:16;102240.66;;;9.97;77.49
66524;BME280;53350;52.210;5.160;2023-02-02T07:25:43;102243.19;;;9.94;77.18
66524;BME280;53350;52.210;5.160;2023-02-02T07:28:09;102254.28;;;9.90;77.20
66524;BME280;53350;52.210;5.160;2023-02-02T07:30:36;102257.66;;;9.87;77.37
66524;BME280;53350;52.210;5.160;2023-02-02T07:33:02;102261.16;;;9.91;77.06
66524;BME280;53350;52.210;5.160;2023-02-02T07:35:30;102263.75;;;9.92;77.01
66524;BME280;53350;52.210;5.160;2023-02-02T07:37:56;102255.19;;;9.94;76.86
66524;BME280;53350;52.210;5.160;2023-02-02T07:40:23;102264.69;;;9.99;76.71
66524;BME280;53350;52.210;5.160;2023-02-02T07:42:49;102263.84;;;9.99;76.53
66524;BME280;53350;52.210;5.160;2023-02-02T07:45:16;102266.47;;;10.03;76.03
66524;BME280;53350;52.210;5.160;2023-02-02T07:47:42;102271.59;;;10.03;76.06
66524;BME280;53350;52.210;5.160;2023-02-02T07:50:09;102275.91;;;10.04;75.64
66524;BME280;53350;52.210;5.160;2023-02-02T07:52:37;102277.63;;;10.02;75.54
66524;BME280;53350;52.210;5.160;2023-02-02T07:55:04;102285.16;;;9.90;75.70
66524;BME280;53350;52.210;5.160;2023-02-02T07:57:31;102292.09;;;9.96;75.75
66524;BME280;53350;52.210;5.160;2023-02-02T07:59:57;102291.34;;;10.01;75.36
66524;BME280;53350;52.210;5.160;2023-02-02T08:02:24;102282.78;;;10.02;75.18
66524;BME280;53350;52.210;5.160;2023-02-02T08:04:50;102288.78;;;10.03;75.19
66524;BME280;53350;52.210;5.160;2023-02-02T08:07:17;102292.19;;;10.02;75.00
66524;BME280;53350;52.210;5.160;2023-02-02T08:09:46;102288.75;;;10.00;75.15
66524;BME280;53350;52.210;5.160;2023-02-02T08:12:13;102284.47;;;10.03;75.18
66524;BME280;53350;52.210;5.160;2023-02-02T08:14:39;102287.97;;;10.05;74.98
66524;BME280;53350;52.210;5.160;2023-02-02T08:17:06;102287.97;;;10.05;74.78
66524;BME280;53350;52.210;5.160;2023-02-02T08:19:33;102302.47;;;10.00;75.21
66524;BME280;53350;52.210;5.160;2023-02-02T08:21:59;102300.81;;;10.04;74.99
66524;BME280;53350;52.210;5.160;2023-02-02T08:24:25;102308.56;;;10.05;75.10
66524;BME280;53350;52.210;5.160;2023-02-02T08:26:53;102313.72;;;10.07;74.93
66524;BME280;53350;52.210;5.160;2023-02-02T08:29:20;102318.06;;;10.09;74.94
66524;BME280;53350;52.210;5.160;2023-02-02T08:31:46;102324.88;;;10.07;74.83
66524;BME280;53350;52.210;5.160;2023-02-02T08:34:12;102325.81;;;10.13;74.53
66524;BME280;53350;52.210;5.160;2023-02-02T08:36:39;102319.81;;;10.15;74.44
66524;BME280;53350;52.210;5.160;2023-02-02T08:39:09;102326.72;;;10.18;74.32
66524;BME280;53350;52.210;5.160;2023-02-02T08:41:36;102319.94;;;10.23;74.26
66524;BME280;53350;52.210;5.160;2023-02-02T08:44:05;102330.28;;;10.27;73.85
66524;BME280;53350;52.210;5.160;2023-02-02T08:46:32;102331.16;;;10.30;73.92
66524;BME280;53350;52.210;5.160;2023-02-02T08:48:58;102334.75;;;10.38;73.88
66524;BME280;53350;52.210;5.160;2023-02-02T08:51:24;102339.91;;;10.38;73.68
66524;BME280;53350;52.210;5.160;2023-02-02T08:53:51;102339.91;;;10.39;73.71
66524;BME280;53350;52.210;5.160;2023-02-02T08:56:18;102332.19;;;10.41;73.72
66524;BME280;53350;52.210;5.160;2023-02-02T08:58:46;102339.94;;;10.41;73.82
66524;BME280;53350;52.210;5.160;2023-02-02T09:01:15;102339.09;;;10.42;73.79
66524;BME280;53350;52.210;5.160;2023-02-02T09:03:42;102334.84;;;10.46;73.48
66524;BME280;53350;52.210;5.160;2023-02-02T09:06:10;102349.47;;;10.50;73.42
66524;BME280;53350;52.210;5.160;2023-02-02T09:08:37;102355.53;;;10.50;73.43
66524;BME280;53350;52.210;5.160;2023-02-02T09:11:05;102350.38;;;10.50;73.63
66524;BME280;53350;52.210;5.160;2023-02-02T09:13:32;102352.09;;;10.53;73.86
66524;BME280;53350;52.210;5.160;2023-02-02T09:15:59;102348.69;;;10.55;73.69
66524;BME280;53350;52.210;5.160;2023-02-02T09:18:27;102360.75;;;10.56;73.85
66524;BME280;53350;52.210;5.160;2023-02-02T09:20:54;102369.31;;;10.57;73.82
66524;BME280;53350;52.210;5.160;2023-02-02T09:23:20;102368.50;;;10.58;73.89
66524;BME280;53350;52.210;5.160;2023-02-02T09:25:46;102371.91;;;10.58;73.76
66524;BME280;53350;52.210;5.160;2023-02-02T09:28:13;102375.41;;;10.62;73.76
66524;BME280;53350;52.210;5.160;2023-02-02T09:30:39;102371.94;;;10.61;73.72
66524;BME280;53350;52.210;5.160;2023-02-02T09:33:06;102385.69;;;10.59;73.98
66524;BME280;53350;52.210;5.160;2023-02-02T09:35:33;102374.50;;;10.58;74.41
66524;BME280;53350;52.210;5.160;2023-02-02T09:38:00;102380.56;;;10.60;74.37
66524;BME280;53350;52.210;5.160;2023-02-02T09:40:26;102377.06;;;10.58;74.18
66524;BME280;53350;52.210;5.160;2023-02-02T09:43:01;102375.34;;;10.54;74.14
66524;BME280;53350;52.210;5.160;2023-02-02T09:45:38;102376.19;;;10.55;74.12
66524;BME280;53350;52.210;5.160;2023-02-02T09:48:16;102371.03;;;10.53;74.39
66524;BME280;53350;52.210;5.160;2023-02-02T09:50:49;102386.44;;;10.50;74.78
66524;BME280;53350;52.210;5.160;2023-02-02T09:53:22;102389.06;;;10.53;74.59
66524;BME280;53350;52.210;5.160;2023-02-02T09:55:53;102382.19;;;10.55;74.59
66524;BME280;53350;52.210;5.160;2023-02-02T09:58:23;102390.81;;;10.56;74.79
66524;BME280;53350;52.210;5.160;2023-02-02T10:00:55;102372.72;;;10.53;74.70
66524;BME280;53350;52.210;5.160;2023-02-02T10:03:29;102401.94;;;10.55;74.64
66524;BME280;53350;52.210;5.160;2023-02-02T10:06:04;102394.13;;;10.47;74.50
66524;BME280;53350;52.210;5.160;2023-02-02T10:08:41;102406.19;;;10.53;75.09
66524;BME280;53350;52.210;5.160;2023-02-02T10:11:23;102404.53;;;10.55;74.89
66524;BME280;53350;52.210;5.160;2023-02-02T10:13:53;102406.25;;;10.54;74.97
66524;BME280;53350;52.210;5.160;2023-02-02T10:16:23;102407.19;;;10.63;74.74
66524;BME280;53350;52.210;5.160;2023-02-02T10:18:53;102410.59;;;10.61;74.83
66524;BME280;53350;52.210;5.160;2023-02-02T10:21:26;102413.28;;;10.66;74.79
66524;BME280;53350;52.210;5.160;2023-02-02T10:23:54;102411.63;;;10.74;74.21
66524;BME280;53350;52.210;5.160;2023-02-02T10:26:26;102420.25;;;10.75;74.14
66524;BME280;53350;52.210;5.160;2023-02-02T10:29:04;102415.06;;;10.73;74.28
66524;BME280;53350;52.210;5.160;2023-02-02T10:31:41;102424.47;;;10.71;74.37
66524;BME280;53350;52.210;5.160;2023-02-02T10:34:16;102429.66;;;10.74;74.09
66524;BME280;53350;52.210;5.160;2023-02-02T10:36:58;102428.81;;;10.74;74.43
66524;BME280;53350;52.210;5.160;2023-02-02T10:39:36;102421.91;;;10.71;74.33
66524;BME280;53350;52.210;5.160;2023-02-02T10:42:13;102433.13;;;10.75;74.32
66524;BME280;53350;52.210;5.160;2023-02-02T10:44:46;102423.66;;;10.74;74.43
66524;BME280;53350;52.210;5.160;2023-02-02T10:47:23;102434.06;;;10.82;74.15
66524;BME280;53350;52.210;5.160;2023-02-02T10:49:57;102431.44;;;10.78;74.15
66524;BME280;53350;52.210;5.160;2023-02-02T10:52:30;102446.94;;;10.80;73.63
66524;BME280;53350;52.210;5.160;2023-02-02T10:55:00;102427.97;;;10.73;73.77
66524;BME280;53350;52.210;5.160;2023-02-02T10:57:46;102432.28;;;10.76;74.22
66524;BME280;53350;52.210;5.160;2023-02-02T11:00:21;102433.97;;;10.74;74.40
66524;BME280;53350;52.210;5.160;2023-02-02T11:02:49;102430.59;;;10.78;74.10
66524;BME280;53350;52.210;5.160;2023-02-02T11:05:20;102432.34;;;10.79;74.04
66524;BME280;53350;52.210;5.160;2023-02-02T11:08:14;102430.66;;;10.83;74.01
66524;BME280;53350;52.210;5.160;2023-02-02T11:10:42;102424.66;;;10.85;74.11
66524;BME280;53350;52.210;5.160;2023-02-02T11:13:13;102429.00;;;10.88;73.90
66524;BME280;53350;52.210;5.160;2023-02-02T11:15:41;102423.00;;;10.90;73.73
66524;BME280;53350;52.210;5.160;2023-02-02T11:18:26;102437.56;;;10.87;73.69
66524;BME280;53350;52.210;5.160;2023-02-02T11:20:53;102432.41;;;10.85;73.97
66524;BME280;53350;52.210;5.160;2023-02-02T11:23:21;102419.53;;;10.88;73.74
66524;BME280;53350;52.210;5.160;2023-02-02T11:25:57;102431.63;;;10.91;73.19
66524;BME280;53350;52.210;5.160;2023-02-02T11:28:25;102427.31;;;10.91;73.19
66524;BME280;53350;52.210;5.160;2023-02-02T11:30:55;102439.38;;;10.94;73.34
66524;BME280;53350;52.210;5.160;2023-02-02T11:33:26;102431.72;;;11.00;72.31
66524;BME280;53350;52.210;5.160;2023-02-02T11:35:55;102435.09;;;10.98;72.79
66524;BME280;53350;52.210;5.160;2023-02-02T11:38:24;102428.28;;;11.00;72.59
66524;BME280;53350;52.210;5.160;2023-02-02T11:40:54;102420.53;;;11.00;72.11
66524;BME280;53350;52.210;5.160;2023-02-02T11:43:25;102423.91;;;10.94;72.19
66524;BME280;53350;52.210;5.160;2023-02-02T11:45:56;102430.78;;;10.93;72.34
66524;BME280;53350;52.210;5.160;2023-02-02T11:48:27;102425.63;;;10.93;72.71
66524;BME280;53350;52.210;5.160;2023-02-02T11:50:55;102423.94;;;10.97;72.30
66524;BME280;53350;52.210;5.160;2023-02-02T11:53:27;102423.94;;;10.95;72.57
66524;BME280;53350;52.210;5.160;2023-02-02T11:55:55;102421.34;;;10.95;72.67
66524;BME280;53350;52.210;5.160;2023-02-02T11:58:24;102423.13;;;11.01;72.58
66524;BME280;53350;52.210;5.160;2023-02-02T12:00:55;102419.72;;;11.02;72.53
66524;BME280;53350;52.210;5.160;2023-02-02T12:03:24;102414.50;;;10.99;72.45
66524;BME280;53350;52.210;5.160;2023-02-02T12:05:51;102417.19;;;11.07;72.13
66524;BME280;53350;52.210;5.160;2023-02-02T12:08:18;102424.88;;;11.02;72.37
66524;BME280;53350;52.210;5.160;2023-02-02T12:10:50;102430.84;;;11.00;72.58
66524;BME280;53350;52.210;5.160;2023-02-02T12:13:33;102421.38;;;10.99;72.77
66524;BME280;53350;52.210;5.160;2023-02-02T12:16:12;102426.56;;;11.00;72.64
66524;BME280;53350;52.210;5.160;2023-02-02T12:18:44;102428.31;;;11.04;72.59
66524;BME280;53350;52.210;5.160;2023-02-02T12:21:16;102418.81;;;11.00;72.44
66524;BME280;53350;52.210;5.160;2023-02-02T12:23:54;102423.13;;;11.00;72.36
66524;BME280;53350;52.210;5.160;2023-02-02T12:26:27;102418.78;;;10.97;72.86
66524;BME280;53350;52.210;5.160;2023-02-02T12:29:18;102415.38;;;10.98;72.95
66524;BME280;53350;52.210;5.160;2023-02-02T12:31:58;102405.91;;;10.99;72.93
66524;BME280;53350;52.210;5.160;2023-02-02T12:34:36;102419.72;;;11.02;72.88
66524;BME280;53350;52.210;5.160;2023-02-02T12:37:15;102411.09;;;11.02;72.48
66524;BME280;53350;52.210;5.160;2023-02-02T12:39:53;102410.22;;;11.00;72.58
66524;BME280;53350;52.210;5.160;2023-02-02T12:42:43;102417.91;;;10.95;72.86
66524;BME280;53350;52.210;5.160;2023-02-02T12:48:21;102409.28;;;10.94;72.73
66524;BME280;53350;52.210;5.160;2023-02-02T12:51:05;102411.00;;;10.92;72.84
66524;BME280;53350;52.210;5.160;2023-02-02T12:53:55;102400.69;;;10.91;72.76
66524;BME280;53350;52.210;5.160;2023-02-02T12:56:28;102401.53;;;10.93;72.74
66524;BME280;53350;52.210;5.160;2023-02-02T12:59:06;102396.34;;;10.90;73.19
66524;BME280;53350;52.210;5.160;2023-02-02T13:01:48;102403.22;;;10.86;73.87
66524;BME280;53350;52.210;5.160;2023-02-02T13:04:30;102411.78;;;10.87;74.54
66524;BME280;53350;52.210;5.160;2023-02-02T13:07:11;102399.72;;;10.83;75.31
66524;BME280;53350;52.210;5.160;2023-02-02T13:09:48;102398.78;;;10.77;75.70
66524;BME280;53350;52.210;5.160;2023-02-02T13:12:18;102403.06;;;10.77;75.79
66524;BME280;53350;52.210;5.160;2023-02-02T13:14:51;102409.06;;;10.74;76.14